Time;durP1;ratioP1;P1;durP2;ratioP2;P2;SDS_P1;SDS_P2;PMS_P1;PMS_P2;Temp;Humidity;BMP_temperature;BMP_pressure;BME280_temperature;BME280_humidity;BME280_pressure;Samples;Min_cycle;Max_cycle;Signal;HPM_P1;HPM_P2
2022/08/04 00:01:54;;;;;;;5.50;1.70;;;;;;;;;;5041515;28;20208;-33
2022/08/04 00:04:28;;;;;;;2.20;1.63;;;;;;;;;;5030063;28;20271;-31
2022/08/04 00:07:00;;;;;;;2.08;1.88;;;;;;;;;;5025682;28;20230;-34
2022/08/04 00:09:30;;;;;;;9.07;1.90;;;;;;;;;;5035472;28;20200;-33
2022/08/04 00:11:59;;;;;;;1.60;1.50;;;;;;;;;;5030644;28;20215;-34
2022/08/04 00:14:27;;;;;;;1.77;1.67;;;;;;;;;;5025334;28;20199;-34
2022/08/04 00:16:54;;;;;;;2.40;1.55;;;;;;;;;;5027405;28;20224;-34
2022/08/04 00:19:27;;;;;;;7.10;1.80;;;;;;;;;;5030621;28;20218;-35
2022/08/04 00:21:56;;;;;;;3.50;1.45;;;;;;;;;;5016650;28;20209;-34
2022/08/04 00:24:24;;;;;;;4.97;2.05;;;;;;;;;;5024733;28;20219;-34
2022/08/04 00:26:53;;;;;;;2.00;1.90;;;;;;;;;;5029775;28;20388;-33
2022/08/04 00:29:21;;;;;;;1.98;1.77;;;;;;;;;;5027677;28;20645;-32
2022/08/04 00:31:49;;;;;;;4.35;1.83;;;;;;;;;;5030043;28;20209;-33
2022/08/04 00:34:16;;;;;;;1.92;1.80;;;;;;;;;;5029911;28;20431;-34
2022/08/04 00:36:45;;;;;;;1.88;1.77;;;;;;;;;;5029056;28;20224;-34
2022/08/04 00:39:13;;;;;;;1.58;1.45;;;;;;;;;;5029873;28;20238;-31
2022/08/04 00:41:47;;;;;;;1.67;1.58;;;;;;;;;;5029483;28;20204;-34
2022/08/04 00:44:22;;;;;;;1.77;1.67;;;;;;;;;;5029960;28;20226;-32
2022/08/04 00:49:27;;;;;;;2.72;1.42;;;;;;;;;;5024667;28;20296;-43
2022/08/04 00:52:02;;;;;;;3.50;1.50;;;;;;;;;;5012873;28;20207;-42
2022/08/04 00:54:50;;;;;;;1.70;1.45;;;;;;;;;;5010589;28;20209;-39
2022/08/04 00:57:28;;;;;;;1.67;1.48;;;;;;;;;;5029745;28;20219;-38
2022/08/04 01:00:03;;;;;;;1.80;1.70;;;;;;;;;;5016354;28;20210;-36
2022/08/04 01:02:36;;;;;;;1.67;1.58;;;;;;;;;;5025482;28;20284;-41
2022/08/04 01:05:04;;;;;;;2.08;1.80;;;;;;;;;;5036704;28;20224;-41
2022/08/04 01:07:47;;;;;;;1.60;1.50;;;;;;;;;;5013465;28;20223;-40
2022/08/04 01:10:20;;;;;;;2.25;1.42;;;;;;;;;;5028670;28;20199;-37
2022/08/04 01:13:07;;;;;;;1.65;1.40;;;;;;;;;;5029320;28;20252;-36
2022/08/04 01:15:40;;;;;;;1.58;1.48;;;;;;;;;;5021311;28;20203;-37
2022/08/04 01:18:07;;;;;;;1.65;1.55;;;;;;;;;;5027926;28;20227;-41
2022/08/04 01:20:40;;;;;;;1.50;1.40;;;;;;;;;;5024474;28;20211;-36
2022/08/04 01:23:22;;;;;;;1.98;1.40;;;;;;;;;;5021887;28;20203;-43
2022/08/04 01:26:06;;;;;;;2.40;1.60;;;;;;;;;;5029643;28;20229;-42
2022/08/04 01:28:37;;;;;;;1.40;1.38;;;;;;;;;;5029066;28;20229;-39
2022/08/04 01:31:11;;;;;;;1.67;1.40;;;;;;;;;;5024262;28;20206;-38
2022/08/04 01:33:40;;;;;;;1.42;1.33;;;;;;;;;;5029208;28;20276;-44
2022/08/04 01:36:07;;;;;;;1.52;1.42;;;;;;;;;;5021054;28;20204;-40
2022/08/04 01:38:35;;;;;;;1.60;1.50;;;;;;;;;;5018210;28;20224;-35
2022/08/04 01:41:04;;;;;;;1.50;1.40;;;;;;;;;;5029436;28;20298;-38
2022/08/04 01:43:31;;;;;;;1.75;1.30;;;;;;;;;;5027122;28;20203;-38
2022/08/04 01:45:59;;;;;;;2.15;1.63;;;;;;;;;;5018886;28;20203;-41
2022/08/04 01:48:28;;;;;;;3.55;1.67;;;;;;;;;;5028746;28;20513;-38
2022/08/04 01:50:58;;;;;;;1.60;1.50;;;;;;;;;;5025187;28;20199;-37
2022/08/04 01:53:29;;;;;;;1.65;1.55;;;;;;;;;;5022942;28;20206;-39
2022/08/04 01:55:57;;;;;;;1.65;1.30;;;;;;;;;;5029290;28;20202;-38
2022/08/04 01:58:25;;;;;;;1.85;1.20;;;;;;;;;;5029181;28;20227;-38
2022/08/04 02:00:58;;;;;;;4.88;1.50;;;;;;;;;;5024775;28;20207;-39
2022/08/04 02:03:26;;;;;;;1.60;1.50;;;;;;;;;;5022691;28;20297;-40
2022/08/04 02:05:56;;;;;;;1.60;1.50;;;;;;;;;;5026923;28;20218;-40
2022/08/04 02:08:30;;;;;;;1.55;1.40;;;;;;;;;;5024730;28;20228;-40
2022/08/04 02:11:02;;;;;;;1.55;1.45;;;;;;;;;;5035715;28;20205;-39
2022/08/04 02:13:32;;;;;;;1.77;1.60;;;;;;;;;;5028901;28;20203;-35
2022/08/04 02:16:02;;;;;;;1.50;1.40;;;;;;;;;;5028240;28;20210;-33
2022/08/04 02:18:32;;;;;;;2.33;1.40;;;;;;;;;;5027435;28;20225;-42
2022/08/04 02:21:01;;;;;;;2.13;1.40;;;;;;;;;;5030638;28;20203;-39
2022/08/04 02:23:30;;;;;;;1.67;1.45;;;;;;;;;;5024696;28;20198;-40
2022/08/04 02:25:58;;;;;;;1.60;1.50;;;;;;;;;;5035781;28;20225;-37
2022/08/04 02:28:31;;;;;;;1.80;1.70;;;;;;;;;;5036524;28;20222;-38
2022/08/04 02:31:03;;;;;;;1.50;1.40;;;;;;;;;;5029785;28;20207;-40
2022/08/04 02:33:35;;;;;;;2.72;1.38;;;;;;;;;;5030659;28;20202;-40
2022/08/04 02:36:05;;;;;;;2.80;1.40;;;;;;;;;;5033101;28;20203;-39
2022/08/04 02:38:50;;;;;;;1.30;1.20;;;;;;;;;;5027480;28;20228;-36
2022/08/04 02:41:17;;;;;;;1.67;1.50;;;;;;;;;;5018948;28;20232;-36
2022/08/04 02:43:48;;;;;;;1.40;1.38;;;;;;;;;;5035436;28;20202;-35
2022/08/04 02:46:16;;;;;;;3.20;1.50;;;;;;;;;;5025830;28;20202;-39
2022/08/04 02:48:46;;;;;;;1.70;1.33;;;;;;;;;;5032620;28;20218;-41
2022/08/04 02:51:16;;;;;;;3.53;1.55;;;;;;;;;;5029196;28;20206;-34
2022/08/04 02:53:44;;;;;;;1.30;1.25;;;;;;;;;;5029445;28;20210;-33
2022/08/04 02:56:12;;;;;;;1.23;1.23;;;;;;;;;;5034772;28;20264;-36
2022/08/04 02:58:42;;;;;;;1.58;1.40;;;;;;;;;;5034951;28;20206;-39
2022/08/04 03:01:09;;;;;;;2.67;1.50;;;;;;;;;;5030651;28;20215;-38
2022/08/04 03:03:40;;;;;;;3.45;1.60;;;;;;;;;;5028275;28;20205;-40
2022/08/04 03:06:28;;;;;;;2.15;1.77;;;;;;;;;;5030530;28;20260;-36
2022/08/04 03:09:09;;;;;;;2.38;1.40;;;;;;;;;;5026118;28;20207;-39
2022/08/04 03:11:57;;;;;;;1.70;1.60;;;;;;;;;;5022173;28;20194;-39
2022/08/04 03:14:48;;;;;;;1.30;1.20;;;;;;;;;;5020821;28;20210;-41
2022/08/04 03:17:30;;;;;;;1.65;1.50;;;;;;;;;;4956016;28;20233;-36
2022/08/04 03:20:16;;;;;;;1.63;1.40;;;;;;;;;;5020414;28;20206;-38
2022/08/04 03:23:04;;;;;;;2.72;1.48;;;;;;;;;;5027841;28;20208;-40
2022/08/04 03:25:38;;;;;;;1.60;1.50;;;;;;;;;;5026354;28;20223;-43
2022/08/04 03:28:18;;;;;;;1.50;1.40;;;;;;;;;;5030960;28;20226;-39
2022/08/04 03:30:52;;;;;;;1.48;1.38;;;;;;;;;;5022222;28;20207;-39
2022/08/04 03:33:31;;;;;;;4.28;1.70;;;;;;;;;;5030812;28;20203;-36
2022/08/04 03:36:17;;;;;;;1.63;1.53;;;;;;;;;;5022382;28;20292;-39
2022/08/04 03:38:55;;;;;;;1.77;1.50;;;;;;;;;;5021014;28;20206;-39
2022/08/04 03:41:31;;;;;;;2.47;1.60;;;;;;;;;;5023381;28;20206;-40
2022/08/04 03:44:17;;;;;;;1.67;1.58;;;;;;;;;;5024434;28;20203;-36
2022/08/04 03:46:52;;;;;;;1.80;1.63;;;;;;;;;;5020243;28;20214;-39
2022/08/04 03:49:37;;;;;;;2.90;1.60;;;;;;;;;;5030421;28;20202;-40
2022/08/04 03:55:14;;;;;;;2.42;1.45;;;;;;;;;;5027051;28;20202;-40
2022/08/04 03:57:52;;;;;;;2.00;1.57;;;;;;;;;;5024855;28;20226;-35
2022/08/04 04:00:20;;;;;;;3.00;1.77;;;;;;;;;;5024637;28;20206;-38
2022/08/04 04:03:05;;;;;;;3.45;1.73;;;;;;;;;;5021675;28;20205;-36
2022/08/04 04:05:42;;;;;;;1.67;1.57;;;;;;;;;;5026581;28;20245;-39
2022/08/04 04:08:26;;;;;;;40.50;36.25;;;;;;;;;;5023162;28;20230;-39
2022/08/04 04:11:06;;;;;;;8.93;8.03;;;;;;;;;;5030652;28;20208;-39
2022/08/04 04:13:57;;;;;;;8.10;6.87;;;;;;;;;;5032682;28;20191;-39
2022/08/04 04:16:42;;;;;;;5.60;5.10;;;;;;;;;;5022045;28;20209;-35
2022/08/04 04:19:33;;;;;;;4.23;3.87;;;;;;;;;;5032636;28;20213;-36
2022/08/04 04:22:18;;;;;;;11.20;5.47;;;;;;;;;;5021863;28;20209;-37
2022/08/04 04:24:59;;;;;;;4.83;4.43;;;;;;;;;;5020830;28;20222;-39
2022/08/04 04:27:32;;;;;;;7.40;6.53;;;;;;;;;;5026495;28;20305;-37
2022/08/04 04:30:13;;;;;;;3.83;3.50;;;;;;;;;;5026600;28;20207;-34
2022/08/04 04:32:47;;;;;;;4.10;3.77;;;;;;;;;;5032811;28;20201;-34
2022/08/04 04:35:20;;;;;;;4.13;2.60;;;;;;;;;;5030850;28;20201;-42
2022/08/04 04:38:04;;;;;;;2.92;2.40;;;;;;;;;;5028016;28;20226;-40
2022/08/04 04:40:35;;;;;;;4.60;2.80;;;;;;;;;;5027973;28;20198;-33
2022/08/04 04:43:11;;;;;;;3.15;2.20;;;;;;;;;;5028451;28;20217;-38
2022/08/04 04:45:42;;;;;;;2.20;2.10;;;;;;;;;;5029318;28;20222;-33
2022/08/04 04:48:13;;;;;;;2.55;2.08;;;;;;;;;;5032772;28;20241;-34
2022/08/04 04:50:47;;;;;;;2.30;2.10;;;;;;;;;;5028687;28;20197;-36
2022/08/04 04:53:20;;;;;;;2.60;2.40;;;;;;;;;;5021109;28;20273;-37
2022/08/04 04:55:51;;;;;;;1.70;1.60;;;;;;;;;;5031591;28;20199;-39
2022/08/04 04:58:20;;;;;;;3.05;2.08;;;;;;;;;;5033147;28;20230;-34
2022/08/04 05:00:59;;;;;;;1.90;1.80;;;;;;;;;;5022603;28;20199;-34
2022/08/04 05:03:36;;;;;;;3.53;2.38;;;;;;;;;;5025343;28;20209;-37
2022/08/04 05:06:14;;;;;;;2.75;1.80;;;;;;;;;;5028069;28;20237;-37
2022/08/04 05:08:55;;;;;;;1.92;1.80;;;;;;;;;;5026675;28;20202;-40
2022/08/04 05:11:41;;;;;;;2.83;1.90;;;;;;;;;;5023281;28;20197;-34
2022/08/04 05:14:10;;;;;;;1.75;1.65;;;;;;;;;;5012801;28;20226;-35
2022/08/04 05:16:42;;;;;;;3.80;1.55;;;;;;;;;;5019675;28;20222;-36
2022/08/04 05:19:15;;;;;;;2.43;1.60;;;;;;;;;;5012880;28;20203;-35
2022/08/04 05:21:44;;;;;;;2.10;1.80;;;;;;;;;;5016307;28;20216;-41
2022/08/04 05:24:13;;;;;;;3.58;1.90;;;;;;;;;;5018464;28;20214;-36
2022/08/04 05:26:44;;;;;;;2.00;1.50;;;;;;;;;;5025042;28;20226;-39
2022/08/04 05:29:14;;;;;;;2.00;1.90;;;;;;;;;;5011505;28;20207;-36
2022/08/04 05:31:45;;;;;;;3.27;1.80;;;;;;;;;;5020320;28;20206;-38
2022/08/04 05:34:14;;;;;;;2.35;1.80;;;;;;;;;;5021526;28;20206;-40
2022/08/04 05:36:42;;;;;;;1.80;1.70;;;;;;;;;;5014440;28;20223;-39
2022/08/04 05:39:12;;;;;;;1.77;1.67;;;;;;;;;;5022536;28;20222;-40
2022/08/04 05:41:39;;;;;;;3.37;2.00;;;;;;;;;;5024452;28;20208;-33
2022/08/04 05:44:08;;;;;;;2.87;1.57;;;;;;;;;;5016212;28;20215;-33
2022/08/04 05:46:36;;;;;;;2.75;1.80;;;;;;;;;;5026056;28;20236;-36
2022/08/04 05:49:05;;;;;;;1.57;1.47;;;;;;;;;;5024492;28;20547;-36
2022/08/04 05:51:32;;;;;;;1.95;1.75;;;;;;;;;;5016843;28;20210;-37
2022/08/04 05:54:00;;;;;;;3.67;2.03;;;;;;;;;;5021334;28;20202;-38
2022/08/04 05:56:27;;;;;;;3.07;2.10;;;;;;;;;;5029500;28;20206;-33
2022/08/04 05:58:56;;;;;;;2.90;1.88;;;;;;;;;;5031606;28;20207;-37
2022/08/04 06:01:24;;;;;;;3.17;2.28;;;;;;;;;;5022798;28;20198;-38
2022/08/04 06:03:52;;;;;;;3.03;1.98;;;;;;;;;;5025514;28;20225;-36
2022/08/04 06:06:21;;;;;;;4.65;2.00;;;;;;;;;;5018281;28;20233;-42
2022/08/04 06:08:48;;;;;;;3.58;2.40;;;;;;;;;;5031540;28;20293;-31
2022/08/04 06:11:16;;;;;;;5.65;2.08;;;;;;;;;;5020334;28;20203;-37
2022/08/04 06:13:44;;;;;;;3.55;2.00;;;;;;;;;;5012102;28;20203;-36
2022/08/04 06:16:13;;;;;;;1.95;1.85;;;;;;;;;;5024006;28;20213;-42
2022/08/04 06:18:41;;;;;;;2.75;2.28;;;;;;;;;;5031148;28;20210;-33
2022/08/04 06:21:10;;;;;;;3.58;1.88;;;;;;;;;;5025554;28;20217;-38
2022/08/04 06:23:40;;;;;;;3.35;1.65;;;;;;;;;;5026064;28;20252;-36
2022/08/04 06:26:07;;;;;;;1.90;1.80;;;;;;;;;;5031649;28;20237;-36
2022/08/04 06:28:35;;;;;;;2.40;1.85;;;;;;;;;;5031455;28;20227;-38
2022/08/04 06:31:04;;;;;;;3.38;2.22;;;;;;;;;;5024326;28;20215;-39
2022/08/04 06:33:33;;;;;;;4.10;1.75;;;;;;;;;;5025731;28;20223;-39
2022/08/04 06:36:01;;;;;;;4.00;1.80;;;;;;;;;;5023719;28;20203;-35
2022/08/04 06:38:30;;;;;;;1.58;1.48;;;;;;;;;;5019848;28;20222;-39
2022/08/04 06:40:58;;;;;;;5.10;1.80;;;;;;;;;;5022083;28;20245;-34
2022/08/04 06:43:27;;;;;;;1.98;1.77;;;;;;;;;;5031172;28;20214;-39
2022/08/04 06:48:29;;;;;;;6.10;1.77;;;;;;;;;;5021064;28;20237;-35
2022/08/04 06:50:56;;;;;;;3.88;2.15;;;;;;;;;;5010498;28;20208;-35
2022/08/04 06:53:23;;;;;;;2.10;1.90;;;;;;;;;;5014562;28;20213;-32
2022/08/04 06:55:51;;;;;;;2.30;1.75;;;;;;;;;;5021103;28;20198;-34
2022/08/04 06:58:20;;;;;;;1.83;1.70;;;;;;;;;;5010724;28;20595;-32
2022/08/04 07:00:48;;;;;;;2.03;1.70;;;;;;;;;;5016795;28;20201;-34
2022/08/04 07:03:16;;;;;;;1.83;1.70;;;;;;;;;;5027481;28;20210;-34
2022/08/04 07:05:44;;;;;;;3.53;1.63;;;;;;;;;;5028633;28;20690;-33
2022/08/04 07:08:11;;;;;;;2.22;1.70;;;;;;;;;;5017320;28;20228;-32
2022/08/04 07:10:39;;;;;;;1.70;1.60;;;;;;;;;;5031781;28;20629;-34
2022/08/04 07:13:08;;;;;;;2.85;1.52;;;;;;;;;;5032497;28;20317;-37
2022/08/04 07:15:37;;;;;;;1.77;1.63;;;;;;;;;;5022178;28;20213;-33
2022/08/04 07:18:04;;;;;;;1.67;1.52;;;;;;;;;;5024429;28;20233;-33
2022/08/04 07:20:32;;;;;;;2.42;1.83;;;;;;;;;;5023762;28;20211;-34
2022/08/04 07:23:00;;;;;;;1.48;1.45;;;;;;;;;;5016164;28;20261;-32
2022/08/04 07:25:27;;;;;;;2.08;1.55;;;;;;;;;;5019572;28;20199;-34
2022/08/04 07:27:54;;;;;;;1.75;1.52;;;;;;;;;;5034937;28;20227;-33
2022/08/04 07:30:22;;;;;;;1.83;1.40;;;;;;;;;;5029078;28;20207;-34
2022/08/04 07:32:51;;;;;;;2.03;1.48;;;;;;;;;;5023817;28;20233;-33
2022/08/04 07:35:19;;;;;;;1.50;1.40;;;;;;;;;;5022220;28;20212;-34
2022/08/04 07:37:46;;;;;;;1.50;1.40;;;;;;;;;;5016404;28;20219;-31
2022/08/04 07:40:14;;;;;;;4.72;1.50;;;;;;;;;;5021154;28;20211;-33
2022/08/04 07:42:41;;;;;;;2.47;1.70;;;;;;;;;;5013418;28;20207;-30
2022/08/04 07:45:09;;;;;;;3.22;1.48;;;;;;;;;;5030861;28;20210;-34
2022/08/04 07:47:38;;;;;;;2.42;1.45;;;;;;;;;;5028172;28;20222;-35
2022/08/04 07:50:07;;;;;;;4.10;1.35;;;;;;;;;;5013370;28;20261;-34
2022/08/04 07:52:35;;;;;;;3.42;1.60;;;;;;;;;;5021452;28;20206;-33
2022/08/04 07:55:02;;;;;;;3.70;1.60;;;;;;;;;;5023147;28;20198;-34
2022/08/04 07:57:29;;;;;;;2.03;1.45;;;;;;;;;;5014767;28;20222;-31
2022/08/04 07:59:56;;;;;;;2.92;1.50;;;;;;;;;;5013370;28;20207;-32
2022/08/04 08:02:24;;;;;;;2.53;1.45;;;;;;;;;;5025772;28;20203;-31
2022/08/04 08:04:51;;;;;;;4.90;1.73;;;;;;;;;;5026311;28;20196;-35
2022/08/04 08:07:20;;;;;;;2.35;1.63;;;;;;;;;;5023804;28;20242;-31
2022/08/04 08:09:47;;;;;;;3.05;1.50;;;;;;;;;;5019951;28;20202;-34
2022/08/04 08:12:15;;;;;;;2.50;1.60;;;;;;;;;;5022688;28;20268;-34
2022/08/04 08:14:43;;;;;;;1.92;1.67;;;;;;;;;;5020586;28;20214;-35
2022/08/04 08:17:10;;;;;;;2.20;1.50;;;;;;;;;;5024335;28;20235;-33
2022/08/04 08:19:37;;;;;;;1.75;1.65;;;;;;;;;;5026951;28;20218;-32
2022/08/04 08:22:05;;;;;;;2.80;1.70;;;;;;;;;;5020713;28;20265;-33
2022/08/04 08:24:36;;;;;;;1.48;1.38;;;;;;;;;;5020142;28;20207;-36
2022/08/04 08:27:04;;;;;;;2.55;1.42;;;;;;;;;;5020840;28;20255;-37
2022/08/04 08:29:33;;;;;;;2.03;1.63;;;;;;;;;;5017024;28;20258;-34
2022/08/04 08:32:00;;;;;;;6.50;1.63;;;;;;;;;;5016932;28;20539;-36
2022/08/04 08:34:28;;;;;;;2.88;1.27;;;;;;;;;;5031137;28;20216;-35
2022/08/04 08:36:59;;;;;;;2.85;1.83;;;;;;;;;;5017133;28;20701;-35
2022/08/04 08:39:29;;;;;;;1.73;1.63;;;;;;;;;;5017279;28;20208;-37
2022/08/04 08:42:16;;;;;;;4.75;1.80;;;;;;;;;;5019419;28;20200;-33
2022/08/04 08:44:52;;;;;;;2.47;1.60;;;;;;;;;;5014734;28;20209;-33
2022/08/04 08:47:33;;;;;;;4.28;1.60;;;;;;;;;;5022307;28;20236;-34
2022/08/04 08:50:11;;;;;;;3.28;1.42;;;;;;;;;;5023257;28;20191;-36
2022/08/04 08:52:53;;;;;;;3.40;1.77;;;;;;;;;;5018976;28;20251;-34
2022/08/04 08:55:27;;;;;;;2.53;1.83;;;;;;;;;;5013581;28;20278;-36
2022/08/04 08:58:02;;;;;;;4.40;1.48;;;;;;;;;;5013825;28;20222;-36
2022/08/04 09:00:34;;;;;;;2.53;1.30;;;;;;;;;;5017852;28;20525;-35
2022/08/04 09:03:19;;;;;;;4.63;1.67;;;;;;;;;;5026614;28;20203;-34
2022/08/04 09:05:56;;;;;;;3.42;1.70;;;;;;;;;;5016992;28;20199;-37
2022/08/04 09:08:38;;;;;;;3.72;1.50;;;;;;;;;;5016926;28;20225;-36
2022/08/04 09:11:07;;;;;;;3.67;1.60;;;;;;;;;;5028635;28;20206;-35
2022/08/04 09:13:41;;;;;;;2.42;1.90;;;;;;;;;;5033019;28;20264;-35
2022/08/04 09:16:11;;;;;;;2.00;1.65;;;;;;;;;;5027334;28;20203;-36
2022/08/04 09:18:42;;;;;;;2.25;1.67;;;;;;;;;;5033824;28;20198;-37
2022/08/04 09:21:12;;;;;;;4.30;1.70;;;;;;;;;;5016922;28;20206;-34
2022/08/04 09:23:44;;;;;;;1.85;1.63;;;;;;;;;;5024966;28;20198;-35
2022/08/04 09:26:16;;;;;;;1.50;1.40;;;;;;;;;;5033550;28;20216;-35
2022/08/04 09:28:50;;;;;;;1.58;1.48;;;;;;;;;;5033187;28;20628;-34
2022/08/04 09:31:20;;;;;;;1.60;1.50;;;;;;;;;;5018268;28;20210;-37
2022/08/04 09:33:50;;;;;;;2.92;1.45;;;;;;;;;;5020011;28;20199;-35
2022/08/04 09:36:25;;;;;;;1.73;1.50;;;;;;;;;;5015489;28;20572;-36
2022/08/04 09:38:56;;;;;;;1.73;1.60;;;;;;;;;;5025745;28;20297;-37
2022/08/04 09:41:30;;;;;;;2.75;1.55;;;;;;;;;;5025091;28;20190;-36
2022/08/04 09:44:08;;;;;;;4.97;1.90;;;;;;;;;;5022630;28;20207;-34
2022/08/04 09:46:37;;;;;;;2.28;1.70;;;;;;;;;;5021177;28;20249;-34
2022/08/04 09:49:08;;;;;;;1.67;1.58;;;;;;;;;;5025379;28;20206;-34
2022/08/04 09:51:42;;;;;;;2.78;1.67;;;;;;;;;;5021407;28;20209;-35
2022/08/04 09:54:12;;;;;;;2.13;1.50;;;;;;;;;;5024025;28;20202;-37
2022/08/04 09:56:42;;;;;;;2.30;1.33;;;;;;;;;;5012989;28;20434;-35
2022/08/04 09:59:19;;;;;;;1.90;1.80;;;;;;;;;;5011675;28;20306;-34
2022/08/04 10:01:47;;;;;;;1.77;1.67;;;;;;;;;;5024874;28;20206;-36
2022/08/04 10:04:18;;;;;;;1.83;1.52;;;;;;;;;;5028905;28;20206;-37
2022/08/04 10:07:05;;;;;;;2.75;1.80;;;;;;;;;;5014680;28;20235;-36
2022/08/04 10:09:43;;;;;;;1.65;1.30;;;;;;;;;;5022176;28;20203;-34
2022/08/04 10:12:17;;;;;;;3.17;1.60;;;;;;;;;;5015807;28;20547;-34
2022/08/04 10:14:52;;;;;;;8.88;4.38;;;;;;;;;;5029848;28;20198;-34
2022/08/04 10:17:26;;;;;;;2.58;2.00;;;;;;;;;;5020277;28;20278;-37
2022/08/04 10:20:00;;;;;;;2.25;1.60;;;;;;;;;;5018007;28;20202;-35
2022/08/04 10:22:32;;;;;;;2.25;1.40;;;;;;;;;;5010908;28;20241;-33
2022/08/04 10:25:04;;;;;;;2.95;2.20;;;;;;;;;;5029196;28;20205;-35
2022/08/04 10:27:41;;;;;;;1.63;1.52;;;;;;;;;;5035408;28;20762;-36
2022/08/04 10:30:11;;;;;;;1.80;1.70;;;;;;;;;;5028482;28;20211;-36
2022/08/04 10:32:44;;;;;;;3.15;1.60;;;;;;;;;;5022606;28;20202;-34
2022/08/04 10:35:13;;;;;;;1.70;1.60;;;;;;;;;;5016138;28;20195;-35
2022/08/04 10:37:43;;;;;;;1.30;1.30;;;;;;;;;;5021820;28;20230;-36
2022/08/04 10:43:00;;;;;;;1.70;1.60;;;;;;;;;;5033290;28;20197;-37
2022/08/04 10:45:34;;;;;;;2.45;1.73;;;;;;;;;;5026555;28;20209;-34
2022/08/04 10:48:06;;;;;;;4.63;1.58;;;;;;;;;;5034182;28;20673;-36
2022/08/04 10:50:36;;;;;;;1.70;1.60;;;;;;;;;;5033094;28;20207;-37
2022/08/04 10:53:04;;;;;;;1.60;1.50;;;;;;;;;;5015402;28;20199;-34
2022/08/04 10:55:34;;;;;;;1.50;1.40;;;;;;;;;;5015742;28;20267;-37
2022/08/04 10:58:02;;;;;;;2.63;1.70;;;;;;;;;;5032017;28;20226;-36
2022/08/04 11:00:34;;;;;;;2.30;1.75;;;;;;;;;;5028059;28;20215;-37
2022/08/04 11:03:05;;;;;;;1.75;1.65;;;;;;;;;;5033056;28;20209;-34
2022/08/04 11:05:38;;;;;;;2.20;1.85;;;;;;;;;;5021846;28;20198;-36
2022/08/04 11:08:10;;;;;;;1.90;1.80;;;;;;;;;;5025029;28;20311;-37
2022/08/04 11:10:41;;;;;;;1.70;1.60;;;;;;;;;;5023878;28;20203;-34
2022/08/04 11:13:11;;;;;;;1.33;1.30;;;;;;;;;;5032188;28;20229;-35
2022/08/04 11:15:41;;;;;;;2.22;1.48;;;;;;;;;;5029261;28;20568;-35
2022/08/04 11:18:10;;;;;;;1.83;1.73;;;;;;;;;;5024705;28;20581;-36
2022/08/04 11:20:41;;;;;;;2.47;1.48;;;;;;;;;;5016457;28;20202;-36
2022/08/04 11:23:09;;;;;;;2.00;1.67;;;;;;;;;;5025719;28;20207;-37
2022/08/04 11:25:41;;;;;;;3.08;1.83;;;;;;;;;;5028482;28;20211;-36
2022/08/04 11:28:11;;;;;;;1.48;1.38;;;;;;;;;;5015348;28;20227;-37
2022/08/04 11:30:43;;;;;;;1.45;1.35;;;;;;;;;;5013753;28;20204;-36
2022/08/04 11:33:17;;;;;;;2.58;1.30;;;;;;;;;;5022280;28;20810;-36
2022/08/04 11:35:47;;;;;;;1.10;1.10;;;;;;;;;;5014363;28;20204;-35
2022/08/04 11:38:20;;;;;;;0.95;0.95;;;;;;;;;;5020790;28;20226;-34
2022/08/04 11:40:48;;;;;;;2.53;1.30;;;;;;;;;;5017266;28;20199;-37
2022/08/04 11:43:17;;;;;;;1.50;1.40;;;;;;;;;;5014558;28;20211;-35
2022/08/04 11:45:51;;;;;;;1.52;1.42;;;;;;;;;;5019804;28;20231;-35
2022/08/04 11:48:24;;;;;;;1.42;1.30;;;;;;;;;;5022970;28;20227;-35
2022/08/04 11:50:52;;;;;;;1.33;1.23;;;;;;;;;;5015476;28;20203;-37
2022/08/04 11:53:22;;;;;;;1.30;1.30;;;;;;;;;;5017828;28;20207;-36
2022/08/04 11:55:51;;;;;;;1.60;1.45;;;;;;;;;;5023313;28;20195;-33
2022/08/04 11:58:19;;;;;;;1.20;1.20;;;;;;;;;;5014850;28;20233;-35
2022/08/04 12:00:52;;;;;;;3.20;1.30;;;;;;;;;;5016920;28;20301;-37
2022/08/04 12:03:25;;;;;;;2.38;1.23;;;;;;;;;;5017626;28;20645;-35
2022/08/04 12:05:55;;;;;;;2.40;1.20;;;;;;;;;;5028772;28;20207;-35
2022/08/04 12:08:28;;;;;;;1.40;1.30;;;;;;;;;;5021627;28;20226;-33
2022/08/04 12:11:03;;;;;;;1.45;1.35;;;;;;;;;;5022417;28;20659;-37
2022/08/04 12:13:35;;;;;;;1.58;1.42;;;;;;;;;;5015477;28;20202;-36
2022/08/04 12:16:11;;;;;;;1.45;1.40;;;;;;;;;;5032762;28;20202;-34
2022/08/04 12:18:40;;;;;;;1.60;1.17;;;;;;;;;;5034376;28;20193;-37
2022/08/04 12:21:09;;;;;;;1.08;1.08;;;;;;;;;;5029455;28;20213;-36
2022/08/04 12:23:38;;;;;;;2.15;1.30;;;;;;;;;;5020159;28;20198;-35
2022/08/04 12:26:07;;;;;;;1.17;1.17;;;;;;;;;;5023977;28;20657;-33
2022/08/04 12:28:35;;;;;;;1.10;1.10;;;;;;;;;;5014833;28;20231;-35
2022/08/04 12:31:08;;;;;;;4.15;1.40;;;;;;;;;;5020380;28;20205;-37
2022/08/04 12:33:38;;;;;;;1.42;1.40;;;;;;;;;;5022570;28;20202;-36
2022/08/04 12:36:11;;;;;;;1.40;1.30;;;;;;;;;;5027932;28;20269;-36
2022/08/04 12:38:41;;;;;;;3.97;1.58;;;;;;;;;;5017320;28;20206;-36
2022/08/04 12:41:09;;;;;;;1.35;1.25;;;;;;;;;;5032765;28;20234;-34
2022/08/04 12:43:38;;;;;;;1.60;1.50;;;;;;;;;;5031153;28;20213;-37
2022/08/04 12:46:08;;;;;;;4.28;1.52;;;;;;;;;;5020191;28;20207;-35
2022/08/04 12:51:03;;;;;;;3.97;1.55;;;;;;;;;;5044715;28;20241;-38
2022/08/04 12:53:32;;;;;;;3.08;1.67;;;;;;;;;;5042077;28;20202;-35
2022/08/04 12:56:00;;;;;;;1.70;1.60;;;;;;;;;;5052936;28;20202;-35
2022/08/04 12:58:29;;;;;;;1.65;1.55;;;;;;;;;;5046403;28;20215;-36
2022/08/04 13:00:59;;;;;;;1.50;1.50;;;;;;;;;;5041607;28;20206;-36
2022/08/04 13:03:30;;;;;;;1.75;1.58;;;;;;;;;;5051724;28;20198;-33
2022/08/04 13:05:57;;;;;;;1.90;1.48;;;;;;;;;;5043275;28;20210;-35
2022/08/04 13:08:24;;;;;;;1.30;1.30;;;;;;;;;;5046995;28;20229;-31
2022/08/04 13:10:53;;;;;;;1.38;1.30;;;;;;;;;;5052304;28;20204;-38
2022/08/04 13:13:21;;;;;;;1.50;1.35;;;;;;;;;;5048313;28;20206;-37
2022/08/04 13:15:56;;;;;;;1.50;1.50;;;;;;;;;;5051490;28;20209;-33
2022/08/04 13:18:24;;;;;;;1.60;1.50;;;;;;;;;;5038012;28;20209;-39
2022/08/04 13:20:53;;;;;;;1.52;1.50;;;;;;;;;;5045340;28;20203;-38
2022/08/04 13:23:20;;;;;;;2.65;1.70;;;;;;;;;;5043433;28;20213;-38
2022/08/04 13:25:49;;;;;;;2.00;1.80;;;;;;;;;;5051916;28;20198;-31
2022/08/04 13:28:19;;;;;;;3.17;1.40;;;;;;;;;;5040548;28;20222;-36
2022/08/04 13:30:48;;;;;;;2.35;1.50;;;;;;;;;;5044601;28;20289;-32
2022/08/04 13:33:16;;;;;;;1.88;1.77;;;;;;;;;;5051369;28;20232;-37
2022/08/04 13:35:44;;;;;;;4.43;1.80;;;;;;;;;;5048812;28;20209;-39
2022/08/04 13:38:14;;;;;;;3.30;1.77;;;;;;;;;;5046391;28;20226;-37
2022/08/04 13:40:42;;;;;;;1.50;1.40;;;;;;;;;;5051768;28;20194;-37
2022/08/04 13:43:09;;;;;;;2.65;1.77;;;;;;;;;;5052398;28;20209;-34
2022/08/04 13:45:37;;;;;;;3.80;1.98;;;;;;;;;;5048554;28;20201;-36
2022/08/04 13:48:05;;;;;;;2.58;2.38;;;;;;;;;;5051671;28;20249;-36
2022/08/04 13:50:32;;;;;;;1.88;1.40;;;;;;;;;;5049273;28;20225;-36
2022/08/04 13:53:01;;;;;;;1.85;1.70;;;;;;;;;;5050728;28;20320;-34
2022/08/04 13:55:30;;;;;;;1.70;1.60;;;;;;;;;;5045082;28;20210;-38
2022/08/04 13:57:59;;;;;;;1.38;1.30;;;;;;;;;;5052544;28;20221;-37
2022/08/04 14:00:27;;;;;;;2.22;1.55;;;;;;;;;;5047905;28;20289;-38
2022/08/04 14:03:00;;;;;;;1.65;1.50;;;;;;;;;;5050024;28;20201;-39
2022/08/04 14:05:28;;;;;;;2.80;1.63;;;;;;;;;;5049757;28;20197;-35
2022/08/04 14:07:58;;;;;;;1.42;1.33;;;;;;;;;;5050935;28;20236;-37
2022/08/04 14:10:25;;;;;;;2.65;1.65;;;;;;;;;;5052071;28;20213;-37
2022/08/04 14:12:55;;;;;;;1.65;1.55;;;;;;;;;;5052121;28;20198;-39
2022/08/04 14:15:32;;;;;;;1.80;1.70;;;;;;;;;;5046154;28;20206;-39
2022/08/04 14:18:16;;;;;;;1.83;1.70;;;;;;;;;;5051435;28;20217;-37
2022/08/04 14:20:58;;;;;;;1.30;1.30;;;;;;;;;;5037027;28;20197;-34
2022/08/04 14:23:25;;;;;;;2.33;1.70;;;;;;;;;;5043152;28;20201;-40
2022/08/04 14:25:52;;;;;;;2.33;1.60;;;;;;;;;;5051267;28;20675;-35
2022/08/04 14:28:29;;;;;;;1.70;1.60;;;;;;;;;;5051733;28;20226;-31
2022/08/04 14:31:09;;;;;;;1.90;1.80;;;;;;;;;;5047520;28;20198;-37
2022/08/04 14:33:38;;;;;;;1.77;1.52;;;;;;;;;;5048883;28;20205;-37
2022/08/04 14:36:05;;;;;;;2.67;1.70;;;;;;;;;;5040829;28;20212;-38
2022/08/04 14:38:43;;;;;;;2.72;1.70;;;;;;;;;;5038525;28;20224;-38
2022/08/04 14:41:10;;;;;;;1.63;1.52;;;;;;;;;;5051440;28;20206;-37
2022/08/04 14:43:43;;;;;;;2.08;1.88;;;;;;;;;;5045724;28;20209;-37
2022/08/04 14:46:11;;;;;;;1.98;1.80;;;;;;;;;;5042906;28;20211;-38
2022/08/04 14:48:38;;;;;;;1.70;1.60;;;;;;;;;;5049724;28;20248;-38
2022/08/04 14:51:06;;;;;;;2.95;1.50;;;;;;;;;;5043994;28;20242;-37
2022/08/04 14:53:37;;;;;;;6.70;2.03;;;;;;;;;;5040124;28;20206;-32
2022/08/04 14:56:05;;;;;;;2.75;1.70;;;;;;;;;;5050374;28;20259;-39
2022/08/04 14:58:33;;;;;;;1.80;1.70;;;;;;;;;;5050399;28;20210;-37
2022/08/04 15:01:03;;;;;;;1.73;1.63;;;;;;;;;;5042221;28;20198;-37
2022/08/04 15:03:31;;;;;;;2.22;1.50;;;;;;;;;;5046866;28;20230;-38
2022/08/04 15:05:58;;;;;;;1.65;1.55;;;;;;;;;;5044079;28;20206;-34
2022/08/04 15:08:27;;;;;;;1.73;1.63;;;;;;;;;;5045013;28;20240;-39
2022/08/04 15:10:57;;;;;;;1.70;1.60;;;;;;;;;;5050890;28;20206;-35
2022/08/04 15:13:24;;;;;;;2.00;1.90;;;;;;;;;;5042109;28;20205;-33
2022/08/04 15:15:51;;;;;;;1.70;1.58;;;;;;;;;;5035153;28;20199;-38
2022/08/04 15:18:20;;;;;;;1.67;1.58;;;;;;;;;;5047100;28;20222;-37
2022/08/04 15:20:48;;;;;;;1.77;1.67;;;;;;;;;;5051074;28;20213;-38
2022/08/04 15:23:15;;;;;;;1.48;1.40;;;;;;;;;;5047357;28;20201;-35